sensor_id;sensor_type;location;lat;lon;timestamp;P1;durP1;ratioP1;P2;durP2;ratioP2
75810;SDS011;64449;50.016;19.954;2023-03-22T00:00:52;52.00;;;27.60;;
75810;SDS011;64449;50.016;19.954;2023-03-22T00:03:21;54.70;;;27.30;;
75810;SDS011;64449;50.016;19.954;2023-03-22T00:05:47;51.90;;;27.10;;
75810;SDS011;64449;50.016;19.954;2023-03-22T00:08:13;52.40;;;28.70;;
75810;SDS011;64449;50.016;19.954;2023-03-22T00:10:39;51.10;;;27.20;;
75810;SDS011;64449;50.016;19.954;2023-03-22T00:13:06;46.70;;;26.60;;
75810;SDS011;64449;50.016;19.954;2023-03-22T00:15:33;46.80;;;24.40;;
75810;SDS011;64449;50.016;19.954;2023-03-22T00:17:59;53.80;;;27.50;;
75810;SDS011;64449;50.016;19.954;2023-03-22T00:20:26;47.30;;;25.10;;
75810;SDS011;64449;50.016;19.954;2023-03-22T00:22:58;47.50;;;26.50;;
75810;SDS011;64449;50.016;19.954;2023-03-22T00:25:24;49.20;;;27.10;;
75810;SDS011;64449;50.016;19.954;2023-03-22T00:27:50;48.30;;;25.60;;
75810;SDS011;64449;50.016;19.954;2023-03-22T00:30:15;51.80;;;26.60;;
75810;SDS011;64449;50.016;19.954;2023-03-22T00:32:41;50.60;;;27.10;;
75810;SDS011;64449;50.016;19.954;2023-03-22T00:35:06;46.20;;;25.40;;
75810;SDS011;64449;50.016;19.954;2023-03-22T00:37:33;48.30;;;26.40;;
75810;SDS011;64449;50.016;19.954;2023-03-22T00:40:06;49.50;;;27.00;;
75810;SDS011;64449;50.016;19.954;2023-03-22T00:42:34;50.10;;;26.30;;
75810;SDS011;64449;50.016;19.954;2023-03-22T00:45:00;49.60;;;25.50;;
75810;SDS011;64449;50.016;19.954;2023-03-22T00:47:26;46.90;;;24.80;;
75810;SDS011;64449;50.016;19.954;2023-03-22T00:49:52;42.90;;;23.20;;
75810;SDS011;64449;50.016;19.954;2023-03-22T00:52:17;47.70;;;26.90;;
75810;SDS011;64449;50.016;19.954;2023-03-22T00:54:42;54.00;;;29.50;;
75810;SDS011;64449;50.016;19.954;2023-03-22T00:57:08;49.30;;;29.20;;
75810;SDS011;64449;50.016;19.954;2023-03-22T00:59:33;51.40;;;26.90;;
75810;SDS011;64449;50.016;19.954;2023-03-22T01:02:03;47.50;;;26.30;;
75810;SDS011;64449;50.016;19.954;2023-03-22T01:04:29;58.20;;;31.70;;
75810;SDS011;64449;50.016;19.954;2023-03-22T01:06:56;58.10;;;30.90;;
75810;SDS011;64449;50.016;19.954;2023-03-22T01:09:26;63.10;;;31.60;;
75810;SDS011;64449;50.016;19.954;2023-03-22T01:11:58;54.40;;;28.90;;
75810;SDS011;64449;50.016;19.954;2023-03-22T01:14:26;52.20;;;29.10;;
75810;SDS011;64449;50.016;19.954;2023-03-22T01:16:52;58.90;;;30.90;;
75810;SDS011;64449;50.016;19.954;2023-03-22T01:19:21;56.00;;;32.40;;
75810;SDS011;64449;50.016;19.954;2023-03-22T01:21:51;56.80;;;30.50;;
75810;SDS011;64449;50.016;19.954;2023-03-22T01:24:17;59.20;;;29.40;;
75810;SDS011;64449;50.016;19.954;2023-03-22T01:26:43;54.30;;;28.40;;
75810;SDS011;64449;50.016;19.954;2023-03-22T01:29:08;60.40;;;33.50;;
75810;SDS011;64449;50.016;19.954;2023-03-22T01:31:33;53.00;;;29.60;;
75810;SDS011;64449;50.016;19.954;2023-03-22T01:33:59;48.90;;;27.80;;
75810;SDS011;64449;50.016;19.954;2023-03-22T01:36:24;54.60;;;28.50;;
75810;SDS011;64449;50.016;19.954;2023-03-22T01:38:50;51.80;;;28.00;;
75810;SDS011;64449;50.016;19.954;2023-03-22T01:41:15;51.80;;;25.80;;
75810;SDS011;64449;50.016;19.954;2023-03-22T01:43:41;50.60;;;26.30;;
75810;SDS011;64449;50.016;19.954;2023-03-22T01:46:06;48.00;;;26.50;;
75810;SDS011;64449;50.016;19.954;2023-03-22T01:48:39;50.90;;;25.30;;
75810;SDS011;64449;50.016;19.954;2023-03-22T01:53:59;44.70;;;22.70;;
75810;SDS011;64449;50.016;19.954;2023-03-22T01:56:29;45.90;;;23.50;;
75810;SDS011;64449;50.016;19.954;2023-03-22T01:58:56;47.40;;;25.80;;
75810;SDS011;64449;50.016;19.954;2023-03-22T02:01:22;44.70;;;23.20;;
75810;SDS011;64449;50.016;19.954;2023-03-22T02:03:53;43.10;;;22.10;;
75810;SDS011;64449;50.016;19.954;2023-03-22T02:06:33;40.20;;;20.10;;
75810;SDS011;64449;50.016;19.954;2023-03-22T02:09:05;37.50;;;18.50;;
75810;SDS011;64449;50.016;19.954;2023-03-22T02:11:34;38.60;;;21.30;;
75810;SDS011;64449;50.016;19.954;2023-03-22T02:14:09;43.90;;;22.50;;
75810;SDS011;64449;50.016;19.954;2023-03-22T02:19:56;47.30;;;21.40;;
75810;SDS011;64449;50.016;19.954;2023-03-22T02:22:38;41.70;;;20.30;;
75810;SDS011;64449;50.016;19.954;2023-03-22T02:44:41;35.20;;;17.20;;
75810;SDS011;64449;50.016;19.954;2023-03-22T02:47:20;36.00;;;18.30;;
75810;SDS011;64449;50.016;19.954;2023-03-22T02:49:53;36.90;;;20.00;;
75810;SDS011;64449;50.016;19.954;2023-03-22T02:52:24;34.10;;;18.80;;
75810;SDS011;64449;50.016;19.954;2023-03-22T02:55:16;34.40;;;17.60;;
75810;SDS011;64449;50.016;19.954;2023-03-22T02:57:44;41.00;;;20.00;;
75810;SDS011;64449;50.016;19.954;2023-03-22T03:00:12;35.30;;;19.20;;
75810;SDS011;64449;50.016;19.954;2023-03-22T03:02:41;35.40;;;20.50;;
75810;SDS011;64449;50.016;19.954;2023-03-22T03:05:09;33.90;;;20.50;;
75810;SDS011;64449;50.016;19.954;2023-03-22T03:07:37;36.70;;;19.90;;
75810;SDS011;64449;50.016;19.954;2023-03-22T03:10:08;36.70;;;19.70;;
75810;SDS011;64449;50.016;19.954;2023-03-22T03:12:34;35.70;;;19.10;;
75810;SDS011;64449;50.016;19.954;2023-03-22T03:14:59;37.80;;;19.20;;
75810;SDS011;64449;50.016;19.954;2023-03-22T03:17:32;35.50;;;18.60;;
75810;SDS011;64449;50.016;19.954;2023-03-22T03:27:43;36.50;;;19.60;;
75810;SDS011;64449;50.016;19.954;2023-03-22T03:30:15;36.60;;;18.00;;
75810;SDS011;64449;50.016;19.954;2023-03-22T03:32:58;33.10;;;17.00;;
75810;SDS011;64449;50.016;19.954;2023-03-22T03:35:29;34.60;;;18.30;;
75810;SDS011;64449;50.016;19.954;2023-03-22T03:40:35;36.30;;;19.00;;
75810;SDS011;64449;50.016;19.954;2023-03-22T03:43:05;32.90;;;17.60;;
75810;SDS011;64449;50.016;19.954;2023-03-22T03:45:33;35.30;;;19.10;;
75810;SDS011;64449;50.016;19.954;2023-03-22T03:48:01;30.50;;;17.60;;
75810;SDS011;64449;50.016;19.954;2023-03-22T03:50:31;35.80;;;18.00;;
75810;SDS011;64449;50.016;19.954;2023-03-22T03:52:57;31.10;;;17.10;;
75810;SDS011;64449;50.016;19.954;2023-03-22T03:55:23;31.90;;;16.60;;
75810;SDS011;64449;50.016;19.954;2023-03-22T03:57:49;32.30;;;17.20;;
75810;SDS011;64449;50.016;19.954;2023-03-22T04:00:15;35.20;;;18.50;;
75810;SDS011;64449;50.016;19.954;2023-03-22T04:02:41;34.20;;;17.90;;
75810;SDS011;64449;50.016;19.954;2023-03-22T04:05:08;30.60;;;18.70;;
75810;SDS011;64449;50.016;19.954;2023-03-22T04:07:35;32.00;;;17.40;;
75810;SDS011;64449;50.016;19.954;2023-03-22T04:10:00;27.90;;;15.80;;
75810;SDS011;64449;50.016;19.954;2023-03-22T04:12:27;27.00;;;16.30;;
75810;SDS011;64449;50.016;19.954;2023-03-22T04:14:52;23.70;;;14.40;;
75810;SDS011;64449;50.016;19.954;2023-03-22T04:17:20;24.10;;;14.80;;
75810;SDS011;64449;50.016;19.954;2023-03-22T04:19:45;24.00;;;15.10;;
75810;SDS011;64449;50.016;19.954;2023-03-22T04:22:11;23.70;;;14.70;;
75810;SDS011;64449;50.016;19.954;2023-03-22T04:24:41;25.30;;;15.00;;
75810;SDS011;64449;50.016;19.954;2023-03-22T04:27:07;29.30;;;17.80;;
75810;SDS011;64449;50.016;19.954;2023-03-22T04:29:33;26.30;;;16.70;;
75810;SDS011;64449;50.016;19.954;2023-03-22T04:32:00;26.80;;;16.50;;
75810;SDS011;64449;50.016;19.954;2023-03-22T04:34:27;25.80;;;15.40;;
75810;SDS011;64449;50.016;19.954;2023-03-22T04:36:53;29.60;;;16.70;;
75810;SDS011;64449;50.016;19.954;2023-03-22T04:39:19;30.90;;;18.90;;
75810;SDS011;64449;50.016;19.954;2023-03-22T04:41:45;28.30;;;16.50;;
75810;SDS011;64449;50.016;19.954;2023-03-22T04:44:10;29.40;;;16.20;;
75810;SDS011;64449;50.016;19.954;2023-03-22T04:46:36;30.60;;;17.50;;
75810;SDS011;64449;50.016;19.954;2023-03-22T04:49:01;27.50;;;16.80;;
75810;SDS011;64449;50.016;19.954;2023-03-22T04:51:27;28.20;;;17.80;;
75810;SDS011;64449;50.016;19.954;2023-03-22T04:53:54;27.50;;;17.50;;
75810;SDS011;64449;50.016;19.954;2023-03-22T04:56:20;27.20;;;16.80;;
75810;SDS011;64449;50.016;19.954;2023-03-22T04:58:46;27.30;;;16.20;;
75810;SDS011;64449;50.016;19.954;2023-03-22T05:01:12;28.50;;;17.30;;
75810;SDS011;64449;50.016;19.954;2023-03-22T05:03:39;27.80;;;16.00;;
75810;SDS011;64449;50.016;19.954;2023-03-22T05:06:07;29.70;;;16.80;;
75810;SDS011;64449;50.016;19.954;2023-03-22T05:08:33;23.30;;;15.60;;
75810;SDS011;64449;50.016;19.954;2023-03-22T05:11:04;26.60;;;16.70;;
75810;SDS011;64449;50.016;19.954;2023-03-22T05:13:37;26.70;;;16.50;;
75810;SDS011;64449;50.016;19.954;2023-03-22T05:16:05;29.80;;;17.20;;
75810;SDS011;64449;50.016;19.954;2023-03-22T05:18:31;27.90;;;17.70;;
75810;SDS011;64449;50.016;19.954;2023-03-22T05:20:58;29.50;;;16.90;;
75810;SDS011;64449;50.016;19.954;2023-03-22T05:23:24;28.60;;;17.30;;
75810;SDS011;64449;50.016;19.954;2023-03-22T05:25:52;27.10;;;16.80;;
75810;SDS011;64449;50.016;19.954;2023-03-22T05:28:19;28.30;;;16.30;;
75810;SDS011;64449;50.016;19.954;2023-03-22T05:30:46;29.40;;;18.20;;
75810;SDS011;64449;50.016;19.954;2023-03-22T05:33:13;25.80;;;15.80;;
75810;SDS011;64449;50.016;19.954;2023-03-22T05:35:41;30.10;;;17.00;;
75810;SDS011;64449;50.016;19.954;2023-03-22T05:38:07;29.60;;;17.80;;
75810;SDS011;64449;50.016;19.954;2023-03-22T05:40:34;26.00;;;15.70;;
75810;SDS011;64449;50.016;19.954;2023-03-22T05:42:59;25.20;;;15.50;;
75810;SDS011;64449;50.016;19.954;2023-03-22T05:45:25;26.90;;;16.70;;
75810;SDS011;64449;50.016;19.954;2023-03-22T05:47:51;27.10;;;17.00;;
75810;SDS011;64449;50.016;19.954;2023-03-22T05:50:18;28.30;;;16.90;;
75810;SDS011;64449;50.016;19.954;2023-03-22T05:52:46;28.00;;;16.40;;
75810;SDS011;64449;50.016;19.954;2023-03-22T05:55:13;25.10;;;15.60;;
75810;SDS011;64449;50.016;19.954;2023-03-22T05:57:43;26.90;;;17.30;;
75810;SDS011;64449;50.016;19.954;2023-03-22T06:00:12;25.20;;;16.10;;
75810;SDS011;64449;50.016;19.954;2023-03-22T06:02:40;23.50;;;15.40;;
75810;SDS011;64449;50.016;19.954;2023-03-22T06:05:10;26.40;;;15.60;;
75810;SDS011;64449;50.016;19.954;2023-03-22T06:07:37;26.80;;;15.20;;
75810;SDS011;64449;50.016;19.954;2023-03-22T06:10:03;24.00;;;15.10;;
75810;SDS011;64449;50.016;19.954;2023-03-22T06:12:30;24.60;;;15.50;;
75810;SDS011;64449;50.016;19.954;2023-03-22T06:14:56;25.80;;;15.90;;
75810;SDS011;64449;50.016;19.954;2023-03-22T06:17:22;26.40;;;16.60;;
75810;SDS011;64449;50.016;19.954;2023-03-22T06:19:48;23.40;;;15.00;;
75810;SDS011;64449;50.016;19.954;2023-03-22T06:22:15;25.30;;;15.90;;
75810;SDS011;64449;50.016;19.954;2023-03-22T06:24:41;28.70;;;16.90;;
75810;SDS011;64449;50.016;19.954;2023-03-22T06:27:06;27.90;;;16.10;;
75810;SDS011;64449;50.016;19.954;2023-03-22T06:29:32;27.90;;;15.10;;
75810;SDS011;64449;50.016;19.954;2023-03-22T06:31:58;30.00;;;15.60;;
75810;SDS011;64449;50.016;19.954;2023-03-22T06:34:25;33.20;;;18.00;;
75810;SDS011;64449;50.016;19.954;2023-03-22T06:36:50;29.80;;;17.00;;
75810;SDS011;64449;50.016;19.954;2023-03-22T06:39:17;26.00;;;15.50;;
75810;SDS011;64449;50.016;19.954;2023-03-22T06:41:44;29.00;;;16.00;;
75810;SDS011;64449;50.016;19.954;2023-03-22T06:44:10;30.90;;;16.60;;
75810;SDS011;64449;50.016;19.954;2023-03-22T06:46:35;27.50;;;16.20;;
75810;SDS011;64449;50.016;19.954;2023-03-22T06:49:01;28.80;;;16.10;;
75810;SDS011;64449;50.016;19.954;2023-03-22T06:51:27;29.90;;;15.80;;
75810;SDS011;64449;50.016;19.954;2023-03-22T06:53:53;23.40;;;14.30;;
75810;SDS011;64449;50.016;19.954;2023-03-22T06:56:18;24.20;;;14.20;;
75810;SDS011;64449;50.016;19.954;2023-03-22T06:58:44;22.80;;;14.80;;
75810;SDS011;64449;50.016;19.954;2023-03-22T07:01:09;28.30;;;16.40;;
75810;SDS011;64449;50.016;19.954;2023-03-22T07:03:35;27.10;;;16.60;;
75810;SDS011;64449;50.016;19.954;2023-03-22T07:06:01;27.30;;;18.20;;
75810;SDS011;64449;50.016;19.954;2023-03-22T07:08:28;27.30;;;16.70;;
75810;SDS011;64449;50.016;19.954;2023-03-22T07:10:53;30.00;;;15.20;;
75810;SDS011;64449;50.016;19.954;2023-03-22T07:13:19;25.70;;;15.40;;
75810;SDS011;64449;50.016;19.954;2023-03-22T07:15:44;28.10;;;16.20;;
75810;SDS011;64449;50.016;19.954;2023-03-22T07:18:09;31.60;;;19.00;;
75810;SDS011;64449;50.016;19.954;2023-03-22T07:20:35;25.50;;;15.80;;
75810;SDS011;64449;50.016;19.954;2023-03-22T07:23:05;29.80;;;16.80;;
75810;SDS011;64449;50.016;19.954;2023-03-22T07:25:32;25.50;;;15.20;;
75810;SDS011;64449;50.016;19.954;2023-03-22T07:27:58;29.90;;;17.20;;
75810;SDS011;64449;50.016;19.954;2023-03-22T07:30:24;31.30;;;17.70;;
75810;SDS011;64449;50.016;19.954;2023-03-22T07:32:50;26.90;;;17.00;;
75810;SDS011;64449;50.016;19.954;2023-03-22T07:35:15;29.80;;;17.50;;
75810;SDS011;64449;50.016;19.954;2023-03-22T07:37:42;27.40;;;16.30;;
75810;SDS011;64449;50.016;19.954;2023-03-22T07:40:09;28.70;;;17.10;;
75810;SDS011;64449;50.016;19.954;2023-03-22T07:42:35;28.60;;;15.70;;
75810;SDS011;64449;50.016;19.954;2023-03-22T07:45:00;26.30;;;15.80;;
75810;SDS011;64449;50.016;19.954;2023-03-22T07:47:26;29.80;;;17.40;;
75810;SDS011;64449;50.016;19.954;2023-03-22T07:49:51;30.00;;;16.20;;
75810;SDS011;64449;50.016;19.954;2023-03-22T07:52:17;31.50;;;18.30;;
75810;SDS011;64449;50.016;19.954;2023-03-22T07:54:42;27.70;;;17.50;;
75810;SDS011;64449;50.016;19.954;2023-03-22T07:57:08;28.80;;;16.10;;
75810;SDS011;64449;50.016;19.954;2023-03-22T07:59:33;26.00;;;15.60;;
75810;SDS011;64449;50.016;19.954;2023-03-22T08:01:59;26.10;;;15.20;;
75810;SDS011;64449;50.016;19.954;2023-03-22T08:04:24;27.30;;;15.40;;
75810;SDS011;64449;50.016;19.954;2023-03-22T08:06:50;26.00;;;15.70;;
75810;SDS011;64449;50.016;19.954;2023-03-22T08:09:16;21.20;;;14.00;;
75810;SDS011;64449;50.016;19.954;2023-03-22T08:11:41;25.60;;;14.40;;
75810;SDS011;64449;50.016;19.954;2023-03-22T08:14:07;22.80;;;13.50;;
75810;SDS011;64449;50.016;19.954;2023-03-22T08:16:33;21.30;;;12.90;;
75810;SDS011;64449;50.016;19.954;2023-03-22T08:18:58;23.90;;;14.00;;
75810;SDS011;64449;50.016;19.954;2023-03-22T08:21:24;20.60;;;12.80;;
75810;SDS011;64449;50.016;19.954;2023-03-22T08:23:51;21.10;;;12.00;;
75810;SDS011;64449;50.016;19.954;2023-03-22T08:26:17;23.60;;;13.40;;
75810;SDS011;64449;50.016;19.954;2023-03-22T08:28:42;24.20;;;15.50;;
75810;SDS011;64449;50.016;19.954;2023-03-22T08:31:12;23.30;;;13.90;;
75810;SDS011;64449;50.016;19.954;2023-03-22T08:36:09;21.90;;;12.20;;
75810;SDS011;64449;50.016;19.954;2023-03-22T08:38:36;19.40;;;12.50;;
75810;SDS011;64449;50.016;19.954;2023-03-22T08:41:02;20.10;;;13.90;;
75810;SDS011;64449;50.016;19.954;2023-03-22T08:43:28;18.60;;;11.90;;
75810;SDS011;64449;50.016;19.954;2023-03-22T08:45:53;19.00;;;12.50;;
75810;SDS011;64449;50.016;19.954;2023-03-22T08:48:19;21.60;;;13.70;;
75810;SDS011;64449;50.016;19.954;2023-03-22T08:50:45;23.40;;;14.10;;
75810;SDS011;64449;50.016;19.954;2023-03-22T08:53:11;21.50;;;15.00;;
75810;SDS011;64449;50.016;19.954;2023-03-22T08:55:38;24.70;;;14.50;;
75810;SDS011;64449;50.016;19.954;2023-03-22T08:58:04;27.20;;;16.70;;
75810;SDS011;64449;50.016;19.954;2023-03-22T09:00:29;24.20;;;15.40;;
75810;SDS011;64449;50.016;19.954;2023-03-22T09:02:55;25.40;;;16.00;;
75810;SDS011;64449;50.016;19.954;2023-03-22T09:05:21;24.30;;;14.70;;
75810;SDS011;64449;50.016;19.954;2023-03-22T09:07:50;22.20;;;14.10;;
75810;SDS011;64449;50.016;19.954;2023-03-22T09:10:16;27.00;;;15.50;;
75810;SDS011;64449;50.016;19.954;2023-03-22T09:12:41;21.60;;;14.00;;
75810;SDS011;64449;50.016;19.954;2023-03-22T09:15:07;24.10;;;15.10;;
75810;SDS011;64449;50.016;19.954;2023-03-22T09:17:33;23.60;;;14.50;;
75810;SDS011;64449;50.016;19.954;2023-03-22T09:19:59;22.60;;;14.40;;
75810;SDS011;64449;50.016;19.954;2023-03-22T09:22:24;23.40;;;14.10;;
75810;SDS011;64449;50.016;19.954;2023-03-22T09:24:50;22.00;;;14.30;;
75810;SDS011;64449;50.016;19.954;2023-03-22T09:27:15;24.00;;;15.10;;
75810;SDS011;64449;50.016;19.954;2023-03-22T09:29:41;26.20;;;14.80;;
75810;SDS011;64449;50.016;19.954;2023-03-22T09:32:06;24.10;;;13.90;;
75810;SDS011;64449;50.016;19.954;2023-03-22T09:34:32;24.00;;;14.10;;
75810;SDS011;64449;50.016;19.954;2023-03-22T09:36:57;23.60;;;14.60;;
75810;SDS011;64449;50.016;19.954;2023-03-22T09:39:26;29.40;;;15.70;;
75810;SDS011;64449;50.016;19.954;2023-03-22T09:42:03;22.50;;;14.50;;
75810;SDS011;64449;50.016;19.954;2023-03-22T09:44:38;22.50;;;13.60;;
75810;SDS011;64449;50.016;19.954;2023-03-22T09:47:09;24.70;;;14.50;;
75810;SDS011;64449;50.016;19.954;2023-03-22T09:49:40;23.60;;;14.60;;
75810;SDS011;64449;50.016;19.954;2023-03-22T09:52:12;24.00;;;15.20;;
75810;SDS011;64449;50.016;19.954;2023-03-22T09:54:40;22.70;;;13.50;;
75810;SDS011;64449;50.016;19.954;2023-03-22T09:57:10;25.70;;;15.40;;
75810;SDS011;64449;50.016;19.954;2023-03-22T10:10:44;14.50;;;10.30;;
75810;SDS011;64449;50.016;19.954;2023-03-22T10:13:22;17.50;;;10.40;;
75810;SDS011;64449;50.016;19.954;2023-03-22T10:16:23;20.10;;;11.60;;
75810;SDS011;64449;50.016;19.954;2023-03-22T10:19:00;19.50;;;11.40;;
75810;SDS011;64449;50.016;19.954;2023-03-22T10:21:41;15.80;;;9.70;;
75810;SDS011;64449;50.016;19.954;2023-03-22T10:26:40;14.70;;;10.00;;
75810;SDS011;64449;50.016;19.954;2023-03-22T10:29:24;17.20;;;11.60;;
75810;SDS011;64449;50.016;19.954;2023-03-22T10:31:51;14.10;;;8.60;;
75810;SDS011;64449;50.016;19.954;2023-03-22T10:34:19;17.20;;;10.30;;
75810;SDS011;64449;50.016;19.954;2023-03-22T10:36:47;16.10;;;9.30;;
75810;SDS011;64449;50.016;19.954;2023-03-22T10:39:29;18.10;;;11.40;;
75810;SDS011;64449;50.016;19.954;2023-03-22T10:41:58;17.90;;;10.40;;
75810;SDS011;64449;50.016;19.954;2023-03-22T10:44:26;15.80;;;10.60;;
75810;SDS011;64449;50.016;19.954;2023-03-22T10:46:54;18.10;;;11.60;;
75810;SDS011;64449;50.016;19.954;2023-03-22T10:49:28;18.30;;;11.00;;
75810;SDS011;64449;50.016;19.954;2023-03-22T10:52:01;18.90;;;10.90;;
75810;SDS011;64449;50.016;19.954;2023-03-22T10:54:28;16.20;;;10.70;;
75810;SDS011;64449;50.016;19.954;2023-03-22T10:56:54;18.30;;;11.10;;
75810;SDS011;64449;50.016;19.954;2023-03-22T11:02:28;17.30;;;9.50;;
75810;SDS011;64449;50.016;19.954;2023-03-22T11:07:32;13.90;;;8.80;;
75810;SDS011;64449;50.016;19.954;2023-03-22T11:13:09;16.80;;;9.10;;
75810;SDS011;64449;50.016;19.954;2023-03-22T11:15:39;11.20;;;7.00;;
75810;SDS011;64449;50.016;19.954;2023-03-22T11:18:14;10.70;;;6.90;;
75810;SDS011;64449;50.016;19.954;2023-03-22T11:20:41;13.20;;;7.50;;
75810;SDS011;64449;50.016;19.954;2023-03-22T11:23:16;11.20;;;6.30;;
75810;SDS011;64449;50.016;19.954;2023-03-22T11:25:45;10.10;;;6.00;;
75810;SDS011;64449;50.016;19.954;2023-03-22T11:28:15;10.70;;;7.30;;
75810;SDS011;64449;50.016;19.954;2023-03-22T11:31:04;10.80;;;6.40;;
75810;SDS011;64449;50.016;19.954;2023-03-22T11:33:32;9.50;;;6.40;;
75810;SDS011;64449;50.016;19.954;2023-03-22T11:35:59;10.10;;;6.70;;
75810;SDS011;64449;50.016;19.954;2023-03-22T11:38:35;10.80;;;6.90;;
75810;SDS011;64449;50.016;19.954;2023-03-22T11:41:21;12.30;;;6.10;;
75810;SDS011;64449;50.016;19.954;2023-03-22T11:43:51;9.50;;;5.10;;
75810;SDS011;64449;50.016;19.954;2023-03-22T11:46:19;8.70;;;5.50;;
75810;SDS011;64449;50.016;19.954;2023-03-22T11:48:46;9.70;;;5.50;;
75810;SDS011;64449;50.016;19.954;2023-03-22T11:51:15;10.00;;;5.60;;
75810;SDS011;64449;50.016;19.954;2023-03-22T11:53:43;8.00;;;5.50;;
75810;SDS011;64449;50.016;19.954;2023-03-22T11:56:12;9.90;;;5.90;;
75810;SDS011;64449;50.016;19.954;2023-03-22T12:01:11;6.30;;;4.30;;
75810;SDS011;64449;50.016;19.954;2023-03-22T12:03:41;8.10;;;5.30;;
75810;SDS011;64449;50.016;19.954;2023-03-22T12:06:14;9.40;;;5.40;;
75810;SDS011;64449;50.016;19.954;2023-03-22T12:08:55;7.90;;;4.50;;
75810;SDS011;64449;50.016;19.954;2023-03-22T12:11:38;7.10;;;4.30;;
75810;SDS011;64449;50.016;19.954;2023-03-22T12:14:07;8.10;;;4.70;;
75810;SDS011;64449;50.016;19.954;2023-03-22T12:16:47;8.70;;;4.70;;
75810;SDS011;64449;50.016;19.954;2023-03-22T12:22:12;5.90;;;4.00;;
75810;SDS011;64449;50.016;19.954;2023-03-22T12:24:40;7.10;;;3.80;;
75810;SDS011;64449;50.016;19.954;2023-03-22T12:29:55;6.50;;;3.30;;
75810;SDS011;64449;50.016;19.954;2023-03-22T12:32:44;5.00;;;3.60;;
75810;SDS011;64449;50.016;19.954;2023-03-22T12:35:20;5.90;;;3.10;;
75810;SDS011;64449;50.016;19.954;2023-03-22T12:37:50;5.00;;;3.10;;
75810;SDS011;64449;50.016;19.954;2023-03-22T12:40:19;5.80;;;3.40;;
75810;SDS011;64449;50.016;19.954;2023-03-22T12:45:41;4.50;;;2.80;;
75810;SDS011;64449;50.016;19.954;2023-03-22T12:48:22;4.30;;;3.00;;
75810;SDS011;64449;50.016;19.954;2023-03-22T12:50:59;4.50;;;2.60;;
75810;SDS011;64449;50.016;19.954;2023-03-22T12:53:30;5.90;;;2.80;;
75810;SDS011;64449;50.016;19.954;2023-03-22T12:58:48;5.10;;;3.10;;
75810;SDS011;64449;50.016;19.954;2023-03-22T13:03:49;4.00;;;2.60;;
75810;SDS011;64449;50.016;19.954;2023-03-22T13:09:19;3.90;;;2.80;;
75810;SDS011;64449;50.016;19.954;2023-03-22T13:22:25;4.40;;;2.50;;
75810;SDS011;64449;50.016;19.954;2023-03-22T13:25:36;3.80;;;2.60;;
75810;SDS011;64449;50.016;19.954;2023-03-22T13:27:51;4.80;;;2.60;;
75810;SDS011;64449;50.016;19.954;2023-03-22T13:32:47;5.30;;;3.10;;
75810;SDS011;64449;50.016;19.954;2023-03-22T13:35:22;5.80;;;3.60;;
75810;SDS011;64449;50.016;19.954;2023-03-22T13:37:48;4.80;;;2.60;;
75810;SDS011;64449;50.016;19.954;2023-03-22T13:40:34;6.60;;;3.20;;
75810;SDS011;64449;50.016;19.954;2023-03-22T13:43:20;5.80;;;2.90;;
75810;SDS011;64449;50.016;19.954;2023-03-22T13:45:57;6.30;;;3.10;;
75810;SDS011;64449;50.016;19.954;2023-03-22T13:59:08;4.00;;;2.40;;
75810;SDS011;64449;50.016;19.954;2023-03-22T14:04:14;3.80;;;2.10;;
75810;SDS011;64449;50.016;19.954;2023-03-22T14:06:59;3.70;;;2.10;;
75810;SDS011;64449;50.016;19.954;2023-03-22T14:09:41;3.70;;;2.20;;
75810;SDS011;64449;50.016;19.954;2023-03-22T14:12:15;4.40;;;2.50;;
75810;SDS011;64449;50.016;19.954;2023-03-22T14:14:46;4.70;;;2.30;;
75810;SDS011;64449;50.016;19.954;2023-03-22T14:17:38;5.20;;;2.40;;
75810;SDS011;64449;50.016;19.954;2023-03-22T14:20:20;5.60;;;2.50;;
75810;SDS011;64449;50.016;19.954;2023-03-22T14:22:58;4.30;;;2.80;;
75810;SDS011;64449;50.016;19.954;2023-03-22T14:25:28;5.60;;;2.80;;
75810;SDS011;64449;50.016;19.954;2023-03-22T14:27:56;5.10;;;2.10;;
75810;SDS011;64449;50.016;19.954;2023-03-22T14:30:28;5.40;;;2.60;;
75810;SDS011;64449;50.016;19.954;2023-03-22T14:33:03;5.00;;;2.50;;
75810;SDS011;64449;50.016;19.954;2023-03-22T14:35:36;4.20;;;2.40;;
75810;SDS011;64449;50.016;19.954;2023-03-22T14:38:05;3.80;;;2.10;;
75810;SDS011;64449;50.016;19.954;2023-03-22T14:40:35;3.80;;;1.60;;
75810;SDS011;64449;50.016;19.954;2023-03-22T14:45:59;4.30;;;2.20;;
75810;SDS011;64449;50.016;19.954;2023-03-22T14:48:31;3.50;;;1.70;;
75810;SDS011;64449;50.016;19.954;2023-03-22T14:51:00;3.40;;;2.10;;
75810;SDS011;64449;50.016;19.954;2023-03-22T14:53:36;3.70;;;2.00;;
75810;SDS011;64449;50.016;19.954;2023-03-22T14:56:07;7.30;;;2.20;;
75810;SDS011;64449;50.016;19.954;2023-03-22T14:58:40;3.60;;;1.90;;
75810;SDS011;64449;50.016;19.954;2023-03-22T15:01:09;3.10;;;1.80;;
75810;SDS011;64449;50.016;19.954;2023-03-22T15:03:40;5.30;;;2.30;;
75810;SDS011;64449;50.016;19.954;2023-03-22T15:06:07;4.30;;;2.50;;
75810;SDS011;64449;50.016;19.954;2023-03-22T15:08:35;4.70;;;2.60;;
75810;SDS011;64449;50.016;19.954;2023-03-22T15:11:01;6.10;;;3.90;;
75810;SDS011;64449;50.016;19.954;2023-03-22T15:13:30;4.40;;;2.90;;
75810;SDS011;64449;50.016;19.954;2023-03-22T15:15:57;4.10;;;2.60;;
75810;SDS011;64449;50.016;19.954;2023-03-22T15:18:24;3.40;;;2.10;;
75810;SDS011;64449;50.016;19.954;2023-03-22T15:20:54;3.00;;;1.80;;
75810;SDS011;64449;50.016;19.954;2023-03-22T15:23:21;4.30;;;2.60;;
75810;SDS011;64449;50.016;19.954;2023-03-22T15:25:55;5.30;;;2.70;;
75810;SDS011;64449;50.016;19.954;2023-03-22T15:28:30;3.80;;;2.20;;
75810;SDS011;64449;50.016;19.954;2023-03-22T15:30:58;5.30;;;2.60;;
75810;SDS011;64449;50.016;19.954;2023-03-22T15:33:31;4.40;;;2.60;;
75810;SDS011;64449;50.016;19.954;2023-03-22T15:35:59;4.50;;;2.40;;
75810;SDS011;64449;50.016;19.954;2023-03-22T15:38:44;5.40;;;2.60;;
75810;SDS011;64449;50.016;19.954;2023-03-22T15:43:42;4.60;;;2.70;;
75810;SDS011;64449;50.016;19.954;2023-03-22T15:46:18;4.60;;;2.50;;
75810;SDS011;64449;50.016;19.954;2023-03-22T15:51:30;6.00;;;2.90;;
75810;SDS011;64449;50.016;19.954;2023-03-22T15:54:02;4.80;;;2.70;;
75810;SDS011;64449;50.016;19.954;2023-03-22T15:56:35;4.20;;;2.60;;
75810;SDS011;64449;50.016;19.954;2023-03-22T15:59:23;3.60;;;2.30;;
75810;SDS011;64449;50.016;19.954;2023-03-22T16:01:57;4.60;;;2.00;;
75810;SDS011;64449;50.016;19.954;2023-03-22T16:04:29;5.50;;;2.60;;
75810;SDS011;64449;50.016;19.954;2023-03-22T16:06:56;5.70;;;2.80;;
75810;SDS011;64449;50.016;19.954;2023-03-22T16:09:22;3.30;;;2.10;;
75810;SDS011;64449;50.016;19.954;2023-03-22T16:11:47;4.90;;;2.90;;
75810;SDS011;64449;50.016;19.954;2023-03-22T16:14:13;5.20;;;2.80;;
75810;SDS011;64449;50.016;19.954;2023-03-22T16:16:41;4.30;;;2.40;;
75810;SDS011;64449;50.016;19.954;2023-03-22T16:19:07;4.40;;;2.30;;
75810;SDS011;64449;50.016;19.954;2023-03-22T16:21:33;6.40;;;2.70;;